Terminal Aerodrome Forecast
Issued by NWS

Current Version | Previous Version | Text Only | Print | Product List | Glossary On
Versions: 1 2 3 4 5 6 7 8 9 10 11 12 13 14 15 16 17 18 19 20
000
FTUS43 KGRR 151740
TAFJXN
TAF
KJXN 151740Z 1518/1618 22015G25KT 2SM -SN BR OVC015
     FM151900 24012KT 3SM -SN BKN025
     FM152300 24006KT P6SM OVC035
     FM160400 23006KT 4SM -SN BR OVC025
     FM161200 10007KT 2SM -SN BR OVC025=

USA.gov is the U.S. government's official web portal to all federal, state and local government web resources and services.